sensor_id;sensor_type;location;lat;lon;timestamp;P1;durP1;ratioP1;P2;durP2;ratioP2
38085;SDS011;23896;50.678;10.924;2022-09-23T00:01:06;1.80;;;1.70;;
38085;SDS011;23896;50.678;10.924;2022-09-23T00:03:33;2.42;;;1.40;;
38085;SDS011;23896;50.678;10.924;2022-09-23T00:06:09;1.70;;;1.58;;
38085;SDS011;23896;50.678;10.924;2022-09-23T00:08:40;2.38;;;1.58;;
38085;SDS011;23896;50.678;10.924;2022-09-23T00:11:12;1.40;;;1.30;;
38085;SDS011;23896;50.678;10.924;2022-09-23T00:13:40;2.97;;;1.30;;
38085;SDS011;23896;50.678;10.924;2022-09-23T00:16:08;1.55;;;1.35;;
38085;SDS011;23896;50.678;10.924;2022-09-23T00:18:35;1.40;;;1.30;;
38085;SDS011;23896;50.678;10.924;2022-09-23T00:21:02;1.90;;;1.38;;
38085;SDS011;23896;50.678;10.924;2022-09-23T00:23:30;1.48;;;1.30;;
38085;SDS011;23896;50.678;10.924;2022-09-23T00:26:00;2.22;;;1.63;;
38085;SDS011;23896;50.678;10.924;2022-09-23T00:28:27;1.85;;;1.33;;
38085;SDS011;23896;50.678;10.924;2022-09-23T00:30:53;1.63;;;1.30;;
38085;SDS011;23896;50.678;10.924;2022-09-23T00:33:20;2.50;;;1.60;;
38085;SDS011;23896;50.678;10.924;2022-09-23T00:35:46;1.20;;;1.10;;
38085;SDS011;23896;50.678;10.924;2022-09-23T00:38:14;1.98;;;1.70;;
38085;SDS011;23896;50.678;10.924;2022-09-23T00:40:45;1.60;;;1.50;;
38085;SDS011;23896;50.678;10.924;2022-09-23T00:43:12;1.50;;;1.40;;
38085;SDS011;23896;50.678;10.924;2022-09-23T00:45:44;1.95;;;1.55;;
38085;SDS011;23896;50.678;10.924;2022-09-23T00:48:19;3.15;;;1.60;;
38085;SDS011;23896;50.678;10.924;2022-09-23T00:50:47;1.42;;;1.23;;
38085;SDS011;23896;50.678;10.924;2022-09-23T00:53:17;2.40;;;1.55;;
38085;SDS011;23896;50.678;10.924;2022-09-23T00:55:48;1.63;;;1.45;;
38085;SDS011;23896;50.678;10.924;2022-09-23T00:58:18;2.75;;;1.63;;
38085;SDS011;23896;50.678;10.924;2022-09-23T01:00:46;1.40;;;1.30;;
38085;SDS011;23896;50.678;10.924;2022-09-23T01:03:13;1.50;;;1.30;;
38085;SDS011;23896;50.678;10.924;2022-09-23T01:05:40;1.90;;;1.63;;
38085;SDS011;23896;50.678;10.924;2022-09-23T01:08:08;2.83;;;1.40;;
38085;SDS011;23896;50.678;10.924;2022-09-23T01:10:59;2.03;;;1.55;;
38085;SDS011;23896;50.678;10.924;2022-09-23T01:16:35;1.52;;;1.42;;
38085;SDS011;23896;50.678;10.924;2022-09-23T01:19:26;1.42;;;1.33;;
38085;SDS011;23896;50.678;10.924;2022-09-23T01:24:33;1.77;;;1.48;;
38085;SDS011;23896;50.678;10.924;2022-09-23T01:35:27;2.22;;;1.23;;
38085;SDS011;23896;50.678;10.924;2022-09-23T01:37:58;2.50;;;1.65;;
38085;SDS011;23896;50.678;10.924;2022-09-23T01:43:08;1.70;;;1.60;;
38085;SDS011;23896;50.678;10.924;2022-09-23T01:50:53;1.40;;;1.30;;
38085;SDS011;23896;50.678;10.924;2022-09-23T01:54:03;2.55;;;1.30;;
38085;SDS011;23896;50.678;10.924;2022-09-23T01:56:30;3.13;;;1.45;;
38085;SDS011;23896;50.678;10.924;2022-09-23T01:59:18;1.40;;;1.20;;
38085;SDS011;23896;50.678;10.924;2022-09-23T02:02:06;1.55;;;1.33;;
38085;SDS011;23896;50.678;10.924;2022-09-23T02:04:37;1.80;;;1.27;;
38085;SDS011;23896;50.678;10.924;2022-09-23T02:07:11;2.10;;;1.60;;
38085;SDS011;23896;50.678;10.924;2022-09-23T02:09:42;2.70;;;1.08;;
38085;SDS011;23896;50.678;10.924;2022-09-23T02:12:16;1.40;;;1.30;;
38085;SDS011;23896;50.678;10.924;2022-09-23T02:15:02;2.00;;;1.45;;
38085;SDS011;23896;50.678;10.924;2022-09-23T02:17:32;2.22;;;1.42;;
38085;SDS011;23896;50.678;10.924;2022-09-23T02:20:03;1.50;;;1.40;;
38085;SDS011;23896;50.678;10.924;2022-09-23T02:22:43;1.50;;;1.33;;
38085;SDS011;23896;50.678;10.924;2022-09-23T02:25:12;1.50;;;1.10;;
38085;SDS011;23896;50.678;10.924;2022-09-23T02:28:24;2.90;;;1.35;;
38085;SDS011;23896;50.678;10.924;2022-09-23T02:30:46;1.85;;;1.40;;
38085;SDS011;23896;50.678;10.924;2022-09-23T02:33:35;2.28;;;1.30;;
38085;SDS011;23896;50.678;10.924;2022-09-23T02:36:12;2.03;;;1.30;;
38085;SDS011;23896;50.678;10.924;2022-09-23T02:38:42;1.40;;;1.30;;
38085;SDS011;23896;50.678;10.924;2022-09-23T02:41:32;2.45;;;1.10;;
38085;SDS011;23896;50.678;10.924;2022-09-23T02:44:06;5.28;;;1.27;;
38085;SDS011;23896;50.678;10.924;2022-09-23T02:46:33;1.52;;;1.30;;
38085;SDS011;23896;50.678;10.924;2022-09-23T02:51:30;2.28;;;1.88;;
38085;SDS011;23896;50.678;10.924;2022-09-23T02:54:03;1.42;;;1.27;;
38085;SDS011;23896;50.678;10.924;2022-09-23T02:56:31;2.20;;;1.60;;
38085;SDS011;23896;50.678;10.924;2022-09-23T02:58:59;1.63;;;1.52;;
38085;SDS011;23896;50.678;10.924;2022-09-23T10:44:55;1.75;;;1.35;;
38085;SDS011;23896;50.678;10.924;2022-09-23T10:50:37;1.70;;;1.60;;
38085;SDS011;23896;50.678;10.924;2022-09-23T10:55:38;2.25;;;1.40;;
38085;SDS011;23896;50.678;10.924;2022-09-23T10:58:20;2.05;;;1.60;;
38085;SDS011;23896;50.678;10.924;2022-09-23T11:09:05;2.35;;;2.03;;
38085;SDS011;23896;50.678;10.924;2022-09-23T11:17:08;1.55;;;1.45;;
38085;SDS011;23896;50.678;10.924;2022-09-23T11:30:41;1.48;;;1.27;;
38085;SDS011;23896;50.678;10.924;2022-09-23T11:35:45;1.40;;;1.30;;
38085;SDS011;23896;50.678;10.924;2022-09-23T11:40:48;1.65;;;1.40;;
38085;SDS011;23896;50.678;10.924;2022-09-23T11:48:41;1.30;;;1.13;;
38085;SDS011;23896;50.678;10.924;2022-09-23T11:56:43;1.80;;;1.63;;
38085;SDS011;23896;50.678;10.924;2022-09-23T12:08:04;1.77;;;1.42;;
38085;SDS011;23896;50.678;10.924;2022-09-23T12:10:38;4.65;;;2.53;;
38085;SDS011;23896;50.678;10.924;2022-09-23T12:13:09;3.20;;;2.78;;
38085;SDS011;23896;50.678;10.924;2022-09-23T12:26:53;5.53;;;4.03;;
38085;SDS011;23896;50.678;10.924;2022-09-23T12:29:21;1.75;;;1.65;;
38085;SDS011;23896;50.678;10.924;2022-09-23T12:32:00;3.20;;;2.58;;
38085;SDS011;23896;50.678;10.924;2022-09-23T12:37:43;1.35;;;0.90;;
38085;SDS011;23896;50.678;10.924;2022-09-23T12:40:31;2.97;;;1.33;;
38085;SDS011;23896;50.678;10.924;2022-09-23T12:43:04;1.52;;;1.40;;
38085;SDS011;23896;50.678;10.924;2022-09-23T12:48:03;2.40;;;1.33;;
38085;SDS011;23896;50.678;10.924;2022-09-23T12:56:01;1.20;;;1.10;;
38085;SDS011;23896;50.678;10.924;2022-09-23T13:01:24;1.08;;;1.00;;
38085;SDS011;23896;50.678;10.924;2022-09-23T13:06:40;2.33;;;1.17;;
38085;SDS011;23896;50.678;10.924;2022-09-23T13:09:21;1.20;;;1.10;;
38085;SDS011;23896;50.678;10.924;2022-09-23T13:11:50;1.08;;;0.95;;
38085;SDS011;23896;50.678;10.924;2022-09-23T13:14:20;3.90;;;2.00;;
38085;SDS011;23896;50.678;10.924;2022-09-23T13:16:47;1.10;;;1.10;;
38085;SDS011;23896;50.678;10.924;2022-09-23T13:19:57;1.75;;;1.15;;
38085;SDS011;23896;50.678;10.924;2022-09-23T13:22:07;1.00;;;1.00;;
38085;SDS011;23896;50.678;10.924;2022-09-23T13:25:10;1.00;;;1.00;;
38085;SDS011;23896;50.678;10.924;2022-09-23T13:27:31;2.80;;;1.00;;
38085;SDS011;23896;50.678;10.924;2022-09-23T13:29:59;0.90;;;0.85;;
38085;SDS011;23896;50.678;10.924;2022-09-23T13:32:33;1.40;;;1.30;;
38085;SDS011;23896;50.678;10.924;2022-09-23T13:41:13;1.23;;;1.13;;
38085;SDS011;23896;50.678;10.924;2022-09-23T13:49:31;1.20;;;1.10;;
38085;SDS011;23896;50.678;10.924;2022-09-23T13:52:00;1.17;;;0.98;;
38085;SDS011;23896;50.678;10.924;2022-09-23T13:54:35;1.30;;;1.20;;
38085;SDS011;23896;50.678;10.924;2022-09-23T13:57:32;1.83;;;1.13;;
38085;SDS011;23896;50.678;10.924;2022-09-23T14:00:00;1.80;;;1.38;;
38085;SDS011;23896;50.678;10.924;2022-09-23T14:02:31;1.95;;;1.10;;
38085;SDS011;23896;50.678;10.924;2022-09-23T14:05:08;1.20;;;1.10;;
38085;SDS011;23896;50.678;10.924;2022-09-23T14:07:39;2.30;;;1.10;;
38085;SDS011;23896;50.678;10.924;2022-09-23T14:10:07;1.30;;;1.20;;
38085;SDS011;23896;50.678;10.924;2022-09-23T14:12:43;2.45;;;1.17;;
38085;SDS011;23896;50.678;10.924;2022-09-23T14:15:14;3.03;;;1.88;;
38085;SDS011;23896;50.678;10.924;2022-09-23T14:17:47;3.25;;;2.53;;
38085;SDS011;23896;50.678;10.924;2022-09-23T14:20:14;1.23;;;1.10;;
38085;SDS011;23896;50.678;10.924;2022-09-23T14:22:42;2.63;;;1.15;;
38085;SDS011;23896;50.678;10.924;2022-09-23T14:25:13;1.33;;;1.23;;
38085;SDS011;23896;50.678;10.924;2022-09-23T14:27:40;1.60;;;1.50;;
38085;SDS011;23896;50.678;10.924;2022-09-23T14:30:24;1.45;;;1.35;;
38085;SDS011;23896;50.678;10.924;2022-09-23T14:32:50;2.55;;;1.52;;
38085;SDS011;23896;50.678;10.924;2022-09-23T14:35:19;1.60;;;1.50;;
38085;SDS011;23896;50.678;10.924;2022-09-23T14:37:52;1.85;;;1.60;;
38085;SDS011;23896;50.678;10.924;2022-09-23T14:43:58;3.28;;;1.60;;
38085;SDS011;23896;50.678;10.924;2022-09-23T14:46:35;1.15;;;1.15;;
38085;SDS011;23896;50.678;10.924;2022-09-23T14:54:40;2.25;;;1.42;;
38085;SDS011;23896;50.678;10.924;2022-09-23T14:57:26;1.55;;;1.45;;
38085;SDS011;23896;50.678;10.924;2022-09-23T15:05:07;1.50;;;1.40;;
38085;SDS011;23896;50.678;10.924;2022-09-23T15:07:43;2.33;;;1.00;;
38085;SDS011;23896;50.678;10.924;2022-09-23T15:10:44;1.70;;;1.30;;
38085;SDS011;23896;50.678;10.924;2022-09-23T15:13:08;2.45;;;1.27;;
38085;SDS011;23896;50.678;10.924;2022-09-23T15:15:36;1.40;;;1.30;;
38085;SDS011;23896;50.678;10.924;2022-09-23T15:18:03;1.48;;;1.38;;
38085;SDS011;23896;50.678;10.924;2022-09-23T15:20:30;1.88;;;1.63;;
38085;SDS011;23896;50.678;10.924;2022-09-23T15:23:00;1.27;;;1.15;;
38085;SDS011;23896;50.678;10.924;2022-09-23T15:28:16;3.53;;;1.20;;
38085;SDS011;23896;50.678;10.924;2022-09-23T15:30:47;1.45;;;1.35;;
38085;SDS011;23896;50.678;10.924;2022-09-23T15:33:15;2.03;;;1.40;;
38085;SDS011;23896;50.678;10.924;2022-09-23T15:35:44;1.23;;;1.20;;
38085;SDS011;23896;50.678;10.924;2022-09-23T15:38:13;1.60;;;1.27;;
38085;SDS011;23896;50.678;10.924;2022-09-23T15:40:42;1.20;;;1.10;;
38085;SDS011;23896;50.678;10.924;2022-09-23T15:43:21;1.63;;;1.38;;
38085;SDS011;23896;50.678;10.924;2022-09-23T15:48:54;1.30;;;1.20;;
38085;SDS011;23896;50.678;10.924;2022-09-23T15:51:22;1.02;;;1.02;;
38085;SDS011;23896;50.678;10.924;2022-09-23T15:53:50;1.67;;;1.27;;
38085;SDS011;23896;50.678;10.924;2022-09-23T15:56:24;1.55;;;1.45;;
38085;SDS011;23896;50.678;10.924;2022-09-23T15:58:55;1.75;;;1.48;;
38085;SDS011;23896;50.678;10.924;2022-09-23T16:01:26;1.67;;;1.38;;
38085;SDS011;23896;50.678;10.924;2022-09-23T16:03:54;5.45;;;1.40;;
38085;SDS011;23896;50.678;10.924;2022-09-23T16:06:30;1.70;;;1.48;;
38085;SDS011;23896;50.678;10.924;2022-09-23T16:09:03;1.42;;;1.33;;
38085;SDS011;23896;50.678;10.924;2022-09-23T16:11:31;1.60;;;1.50;;
38085;SDS011;23896;50.678;10.924;2022-09-23T16:13:59;1.77;;;1.58;;
38085;SDS011;23896;50.678;10.924;2022-09-23T16:16:27;2.45;;;1.60;;
38085;SDS011;23896;50.678;10.924;2022-09-23T16:18:55;2.75;;;1.33;;
38085;SDS011;23896;50.678;10.924;2022-09-23T16:21:24;1.75;;;1.30;;
38085;SDS011;23896;50.678;10.924;2022-09-23T16:23:51;1.60;;;1.50;;
38085;SDS011;23896;50.678;10.924;2022-09-23T16:26:26;1.50;;;1.38;;
38085;SDS011;23896;50.678;10.924;2022-09-23T16:28:55;4.97;;;1.98;;
38085;SDS011;23896;50.678;10.924;2022-09-23T16:31:22;5.43;;;1.90;;
38085;SDS011;23896;50.678;10.924;2022-09-23T16:33:55;2.63;;;2.42;;
38085;SDS011;23896;50.678;10.924;2022-09-23T16:38:53;2.72;;;2.17;;
38085;SDS011;23896;50.678;10.924;2022-09-23T16:41:20;5.47;;;3.90;;
38085;SDS011;23896;50.678;10.924;2022-09-23T16:43:50;5.28;;;2.38;;
38085;SDS011;23896;50.678;10.924;2022-09-23T16:46:20;2.55;;;2.35;;
38085;SDS011;23896;50.678;10.924;2022-09-23T16:48:48;8.02;;;2.80;;
38085;SDS011;23896;50.678;10.924;2022-09-23T16:51:19;3.58;;;2.33;;
38085;SDS011;23896;50.678;10.924;2022-09-23T16:53:47;3.10;;;2.30;;
38085;SDS011;23896;50.678;10.924;2022-09-23T16:56:15;9.70;;;2.50;;
38085;SDS011;23896;50.678;10.924;2022-09-23T16:58:43;6.65;;;2.80;;
38085;SDS011;23896;50.678;10.924;2022-09-23T17:01:12;2.72;;;2.45;;
38085;SDS011;23896;50.678;10.924;2022-09-23T17:03:57;3.63;;;2.92;;
38085;SDS011;23896;50.678;10.924;2022-09-23T17:06:24;6.32;;;2.67;;
38085;SDS011;23896;50.678;10.924;2022-09-23T17:08:52;3.90;;;2.47;;
38085;SDS011;23896;50.678;10.924;2022-09-23T17:11:19;5.68;;;2.78;;
38085;SDS011;23896;50.678;10.924;2022-09-23T17:13:47;4.03;;;2.80;;
38085;SDS011;23896;50.678;10.924;2022-09-23T17:16:26;3.55;;;2.95;;
38085;SDS011;23896;50.678;10.924;2022-09-23T17:18:53;3.15;;;2.83;;
38085;SDS011;23896;50.678;10.924;2022-09-23T17:21:20;3.30;;;3.10;;
38085;SDS011;23896;50.678;10.924;2022-09-23T17:23:50;6.32;;;2.88;;
38085;SDS011;23896;50.678;10.924;2022-09-23T17:26:16;3.42;;;3.17;;
38085;SDS011;23896;50.678;10.924;2022-09-23T17:28:46;3.55;;;3.20;;
38085;SDS011;23896;50.678;10.924;2022-09-23T17:31:13;4.82;;;2.47;;
38085;SDS011;23896;50.678;10.924;2022-09-23T17:33:41;9.43;;;2.65;;
38085;SDS011;23896;50.678;10.924;2022-09-23T17:36:10;6.50;;;2.30;;
38085;SDS011;23896;50.678;10.924;2022-09-23T17:38:43;3.08;;;2.67;;
38085;SDS011;23896;50.678;10.924;2022-09-23T17:41:12;23.15;;;17.95;;
38085;SDS011;23896;50.678;10.924;2022-09-23T17:43:38;28.35;;;18.23;;
38085;SDS011;23896;50.678;10.924;2022-09-23T17:46:07;11.45;;;8.98;;
38085;SDS011;23896;50.678;10.924;2022-09-23T17:48:36;12.95;;;9.35;;
38085;SDS011;23896;50.678;10.924;2022-09-23T17:51:08;18.77;;;13.75;;
38085;SDS011;23896;50.678;10.924;2022-09-23T17:53:37;25.33;;;17.23;;
38085;SDS011;23896;50.678;10.924;2022-09-23T17:56:12;26.23;;;20.75;;
38085;SDS011;23896;50.678;10.924;2022-09-23T17:58:40;24.95;;;20.08;;
38085;SDS011;23896;50.678;10.924;2022-09-23T18:01:10;21.38;;;16.67;;
38085;SDS011;23896;50.678;10.924;2022-09-23T18:03:38;11.15;;;9.05;;
38085;SDS011;23896;50.678;10.924;2022-09-23T18:06:14;22.48;;;13.60;;
38085;SDS011;23896;50.678;10.924;2022-09-23T18:08:43;19.70;;;14.00;;
38085;SDS011;23896;50.678;10.924;2022-09-23T18:14:04;8.38;;;7.00;;
38085;SDS011;23896;50.678;10.924;2022-09-23T18:16:34;20.88;;;14.93;;
38085;SDS011;23896;50.678;10.924;2022-09-23T18:21:53;12.77;;;10.52;;
38085;SDS011;23896;50.678;10.924;2022-09-23T18:24:28;11.07;;;7.28;;
38085;SDS011;23896;50.678;10.924;2022-09-23T18:26:58;7.85;;;5.93;;
38085;SDS011;23896;50.678;10.924;2022-09-23T18:29:28;6.85;;;5.47;;
38085;SDS011;23896;50.678;10.924;2022-09-23T18:31:57;5.75;;;5.05;;
38085;SDS011;23896;50.678;10.924;2022-09-23T18:34:23;8.20;;;5.97;;
38085;SDS011;23896;50.678;10.924;2022-09-23T18:36:50;6.85;;;5.97;;
38085;SDS011;23896;50.678;10.924;2022-09-23T18:39:21;7.90;;;5.40;;
38085;SDS011;23896;50.678;10.924;2022-09-23T18:41:47;6.57;;;5.13;;
38085;SDS011;23896;50.678;10.924;2022-09-23T18:44:14;4.20;;;3.75;;
38085;SDS011;23896;50.678;10.924;2022-09-23T18:46:43;6.80;;;5.13;;
38085;SDS011;23896;50.678;10.924;2022-09-23T18:49:12;6.10;;;5.32;;
38085;SDS011;23896;50.678;10.924;2022-09-23T18:51:57;10.65;;;9.27;;
38085;SDS011;23896;50.678;10.924;2022-09-23T18:54:24;20.55;;;12.85;;
38085;SDS011;23896;50.678;10.924;2022-09-23T18:56:51;6.68;;;4.82;;
38085;SDS011;23896;50.678;10.924;2022-09-23T18:59:19;9.55;;;7.40;;
38085;SDS011;23896;50.678;10.924;2022-09-23T19:01:48;11.55;;;9.32;;
38085;SDS011;23896;50.678;10.924;2022-09-23T19:04:18;11.95;;;9.55;;
38085;SDS011;23896;50.678;10.924;2022-09-23T19:06:45;9.10;;;5.40;;
38085;SDS011;23896;50.678;10.924;2022-09-23T19:09:13;3.10;;;2.90;;
38085;SDS011;23896;50.678;10.924;2022-09-23T19:11:39;5.78;;;3.92;;
38085;SDS011;23896;50.678;10.924;2022-09-23T19:14:09;4.55;;;3.60;;
38085;SDS011;23896;50.678;10.924;2022-09-23T19:16:35;3.28;;;2.90;;
38085;SDS011;23896;50.678;10.924;2022-09-23T19:19:03;5.63;;;3.53;;
38085;SDS011;23896;50.678;10.924;2022-09-23T19:21:30;4.35;;;3.30;;
38085;SDS011;23896;50.678;10.924;2022-09-23T19:23:59;3.28;;;2.80;;
38085;SDS011;23896;50.678;10.924;2022-09-23T19:26:37;10.50;;;4.10;;
38085;SDS011;23896;50.678;10.924;2022-09-23T19:29:05;7.85;;;4.28;;
38085;SDS011;23896;50.678;10.924;2022-09-23T19:31:33;5.57;;;4.38;;
38085;SDS011;23896;50.678;10.924;2022-09-23T19:34:09;9.82;;;3.90;;
38085;SDS011;23896;50.678;10.924;2022-09-23T19:36:37;4.32;;;3.22;;
38085;SDS011;23896;50.678;10.924;2022-09-23T19:39:05;2.58;;;2.38;;
38085;SDS011;23896;50.678;10.924;2022-09-23T19:41:32;6.25;;;3.00;;
38085;SDS011;23896;50.678;10.924;2022-09-23T19:44:02;4.15;;;2.72;;
38085;SDS011;23896;50.678;10.924;2022-09-23T19:46:33;3.03;;;2.72;;
38085;SDS011;23896;50.678;10.924;2022-09-23T19:49:01;2.58;;;2.38;;
38085;SDS011;23896;50.678;10.924;2022-09-23T19:51:28;2.53;;;2.10;;
38085;SDS011;23896;50.678;10.924;2022-09-23T19:53:56;2.78;;;2.53;;
38085;SDS011;23896;50.678;10.924;2022-09-23T19:56:23;2.90;;;2.60;;
38085;SDS011;23896;50.678;10.924;2022-09-23T19:58:50;3.95;;;2.50;;
38085;SDS011;23896;50.678;10.924;2022-09-23T20:01:21;3.38;;;2.63;;
38085;SDS011;23896;50.678;10.924;2022-09-23T20:03:49;2.90;;;2.22;;
38085;SDS011;23896;50.678;10.924;2022-09-23T20:06:16;4.30;;;2.65;;
38085;SDS011;23896;50.678;10.924;2022-09-23T20:08:45;2.65;;;2.45;;
38085;SDS011;23896;50.678;10.924;2022-09-23T20:13:44;2.60;;;2.40;;
38085;SDS011;23896;50.678;10.924;2022-09-23T20:16:15;3.75;;;2.38;;
38085;SDS011;23896;50.678;10.924;2022-09-23T20:18:43;3.20;;;2.17;;
38085;SDS011;23896;50.678;10.924;2022-09-23T20:21:13;2.92;;;2.60;;
38085;SDS011;23896;50.678;10.924;2022-09-23T20:23:40;2.35;;;2.15;;
38085;SDS011;23896;50.678;10.924;2022-09-23T20:26:07;2.90;;;2.20;;
38085;SDS011;23896;50.678;10.924;2022-09-23T20:28:55;3.53;;;2.42;;
38085;SDS011;23896;50.678;10.924;2022-09-23T20:31:23;2.42;;;2.22;;
38085;SDS011;23896;50.678;10.924;2022-09-23T20:33:50;3.30;;;2.10;;
38085;SDS011;23896;50.678;10.924;2022-09-23T20:36:19;3.40;;;2.28;;
38085;SDS011;23896;50.678;10.924;2022-09-23T20:38:46;2.78;;;2.05;;
38085;SDS011;23896;50.678;10.924;2022-09-23T20:41:12;2.50;;;2.30;;
38085;SDS011;23896;50.678;10.924;2022-09-23T20:43:41;2.17;;;1.98;;
38085;SDS011;23896;50.678;10.924;2022-09-23T20:46:08;2.88;;;2.30;;
38085;SDS011;23896;50.678;10.924;2022-09-23T20:48:34;3.20;;;2.38;;
38085;SDS011;23896;50.678;10.924;2022-09-23T20:51:01;2.75;;;2.38;;
38085;SDS011;23896;50.678;10.924;2022-09-23T20:53:33;2.72;;;2.20;;
38085;SDS011;23896;50.678;10.924;2022-09-23T20:55:59;2.22;;;2.03;;
38085;SDS011;23896;50.678;10.924;2022-09-23T20:58:29;3.28;;;2.20;;
38085;SDS011;23896;50.678;10.924;2022-09-23T21:01:05;2.90;;;1.70;;
38085;SDS011;23896;50.678;10.924;2022-09-23T21:03:35;4.35;;;2.40;;
38085;SDS011;23896;50.678;10.924;2022-09-23T21:06:06;2.35;;;2.15;;
38085;SDS011;23896;50.678;10.924;2022-09-23T21:08:33;2.90;;;2.58;;
38085;SDS011;23896;50.678;10.924;2022-09-23T21:11:00;2.50;;;2.30;;
38085;SDS011;23896;50.678;10.924;2022-09-23T21:13:33;2.25;;;2.05;;
38085;SDS011;23896;50.678;10.924;2022-09-23T21:16:07;2.67;;;1.90;;
38085;SDS011;23896;50.678;10.924;2022-09-23T21:18:34;2.47;;;2.28;;
38085;SDS011;23896;50.678;10.924;2022-09-23T21:21:02;1.85;;;1.75;;
38085;SDS011;23896;50.678;10.924;2022-09-23T21:23:31;4.40;;;2.60;;
38085;SDS011;23896;50.678;10.924;2022-09-23T21:26:04;4.57;;;2.55;;
38085;SDS011;23896;50.678;10.924;2022-09-23T21:28:34;3.65;;;1.98;;
38085;SDS011;23896;50.678;10.924;2022-09-23T21:31:03;2.35;;;2.15;;
38085;SDS011;23896;50.678;10.924;2022-09-23T21:33:31;2.78;;;2.10;;
38085;SDS011;23896;50.678;10.924;2022-09-23T21:36:02;2.70;;;2.00;;
38085;SDS011;23896;50.678;10.924;2022-09-23T21:38:33;2.30;;;2.10;;
38085;SDS011;23896;50.678;10.924;2022-09-23T21:41:02;4.63;;;1.92;;
38085;SDS011;23896;50.678;10.924;2022-09-23T21:43:32;2.15;;;1.95;;
38085;SDS011;23896;50.678;10.924;2022-09-23T21:46:01;5.80;;;3.20;;
38085;SDS011;23896;50.678;10.924;2022-09-23T21:48:35;4.65;;;2.70;;
38085;SDS011;23896;50.678;10.924;2022-09-23T21:51:05;2.15;;;1.95;;
38085;SDS011;23896;50.678;10.924;2022-09-23T21:53:34;2.03;;;1.92;;
38085;SDS011;23896;50.678;10.924;2022-09-23T21:58:47;1.92;;;1.77;;
38085;SDS011;23896;50.678;10.924;2022-09-23T22:01:14;4.80;;;2.00;;
38085;SDS011;23896;50.678;10.924;2022-09-23T22:03:42;2.28;;;1.83;;
38085;SDS011;23896;50.678;10.924;2022-09-23T22:06:12;2.42;;;2.22;;
38085;SDS011;23896;50.678;10.924;2022-09-23T22:08:39;4.35;;;1.90;;
38085;SDS011;23896;50.678;10.924;2022-09-23T22:11:13;3.38;;;2.40;;
38085;SDS011;23896;50.678;10.924;2022-09-23T22:14:00;2.20;;;2.00;;
38085;SDS011;23896;50.678;10.924;2022-09-23T22:16:27;2.08;;;1.67;;
38085;SDS011;23896;50.678;10.924;2022-09-23T22:18:55;2.80;;;1.98;;
38085;SDS011;23896;50.678;10.924;2022-09-23T22:21:26;2.00;;;1.90;;
38085;SDS011;23896;50.678;10.924;2022-09-23T22:23:53;1.88;;;1.75;;
38085;SDS011;23896;50.678;10.924;2022-09-23T22:26:28;2.00;;;1.88;;
38085;SDS011;23896;50.678;10.924;2022-09-23T22:28:54;3.97;;;1.80;;
38085;SDS011;23896;50.678;10.924;2022-09-23T22:31:39;1.90;;;1.73;;
38085;SDS011;23896;50.678;10.924;2022-09-23T22:34:24;2.42;;;1.88;;
38085;SDS011;23896;50.678;10.924;2022-09-23T22:37:01;2.30;;;1.70;;
38085;SDS011;23896;50.678;10.924;2022-09-23T22:39:28;1.92;;;1.70;;
38085;SDS011;23896;50.678;10.924;2022-09-23T22:41:55;3.22;;;2.08;;
38085;SDS011;23896;50.678;10.924;2022-09-23T22:44:26;2.47;;;2.10;;
38085;SDS011;23896;50.678;10.924;2022-09-23T22:46:53;1.65;;;1.40;;
38085;SDS011;23896;50.678;10.924;2022-09-23T22:49:19;1.90;;;1.80;;
38085;SDS011;23896;50.678;10.924;2022-09-23T22:51:46;2.20;;;1.98;;
38085;SDS011;23896;50.678;10.924;2022-09-23T22:54:13;1.70;;;1.60;;
38085;SDS011;23896;50.678;10.924;2022-09-23T22:56:39;3.08;;;2.10;;
38085;SDS011;23896;50.678;10.924;2022-09-23T22:59:06;5.53;;;2.00;;
38085;SDS011;23896;50.678;10.924;2022-09-23T23:01:33;2.72;;;2.53;;
38085;SDS011;23896;50.678;10.924;2022-09-23T23:04:00;2.80;;;1.65;;
38085;SDS011;23896;50.678;10.924;2022-09-23T23:06:28;3.10;;;1.85;;
38085;SDS011;23896;50.678;10.924;2022-09-23T23:08:59;1.88;;;1.65;;
38085;SDS011;23896;50.678;10.924;2022-09-23T23:11:26;2.60;;;1.80;;
38085;SDS011;23896;50.678;10.924;2022-09-23T23:13:54;1.90;;;1.80;;
38085;SDS011;23896;50.678;10.924;2022-09-23T23:16:22;3.40;;;1.70;;
38085;SDS011;23896;50.678;10.924;2022-09-23T23:18:50;2.20;;;2.00;;
38085;SDS011;23896;50.678;10.924;2022-09-23T23:21:18;1.95;;;1.70;;
38085;SDS011;23896;50.678;10.924;2022-09-23T23:23:46;2.28;;;1.92;;
38085;SDS011;23896;50.678;10.924;2022-09-23T23:28:41;2.85;;;1.92;;
38085;SDS011;23896;50.678;10.924;2022-09-23T23:31:10;2.03;;;1.70;;
38085;SDS011;23896;50.678;10.924;2022-09-23T23:33:41;2.78;;;2.00;;
38085;SDS011;23896;50.678;10.924;2022-09-23T23:36:08;2.58;;;2.00;;
38085;SDS011;23896;50.678;10.924;2022-09-23T23:38:35;4.55;;;1.90;;
38085;SDS011;23896;50.678;10.924;2022-09-23T23:41:03;2.05;;;1.88;;
38085;SDS011;23896;50.678;10.924;2022-09-23T23:43:30;2.53;;;1.95;;
38085;SDS011;23896;50.678;10.924;2022-09-23T23:45:57;2.22;;;2.03;;
38085;SDS011;23896;50.678;10.924;2022-09-23T23:48:26;2.20;;;2.03;;
38085;SDS011;23896;50.678;10.924;2022-09-23T23:50:53;2.30;;;2.10;;
38085;SDS011;23896;50.678;10.924;2022-09-23T23:53:23;2.42;;;1.98;;
38085;SDS011;23896;50.678;10.924;2022-09-23T23:55:50;1.95;;;1.85;;
38085;SDS011;23896;50.678;10.924;2022-09-23T23:58:23;3.17;;;1.80;;
